Time,TemperatureF,DewpointF,PressureIn,WindDirection,WindDirectionDegrees,WindSpeedMPH,WindSpeedGustMPH,Humidity,HourlyPrecipIn,Conditions,Clouds,dailyrainin,SolarRadiationWatts/m^2,SoftwareType,DateUTC
2013-03-06 00:00:00,24.7,16.0,30.43,North,350,6.0,9.0,69,0.00,,,0.00,0,Wunderground v.1.15,2013-03-06 06:00:00,
2013-03-06 00:10:00,24.7,16.3,30.43,North,360,6.0,6.0,70,0.00,,,0.00,0,Wunderground v.1.15,2013-03-06 06:10:00,
2013-03-06 00:20:00,24.7,16.3,30.43,North,355,1.0,2.0,70,0.00,,,0.00,0,Wunderground v.1.15,2013-03-06 06:20:00,
2013-03-06 00:30:00,24.7,16.6,30.43,NNW,327,3.0,3.0,71,0.00,,,0.00,0,Wunderground v.1.15,2013-03-06 06:30:00,
2013-03-06 00:39:00,24.5,16.4,30.43,NNW,333,4.0,4.0,71,0.00,,,0.00,0,Wunderground v.1.15,2013-03-06 06:39:00,
2013-03-06 00:50:00,24.4,16.7,30.43,NW,320,4.0,4.0,72,0.00,,,0.00,0,Wunderground v.1.15,2013-03-06 06:50:00,
2013-03-06 01:00:00,24.1,16.4,30.43,NNW,328,6.0,10.0,72,0.00,,,0.00,0,Wunderground v.1.15,2013-03-06 07:00:00,
2013-03-06 01:10:00,24.1,16.4,30.44,NNW,337,4.0,4.0,72,0.00,,,0.00,0,Wunderground v.1.15,2013-03-06 07:10:00,
2013-03-06 01:20:00,23.9,16.2,30.44,North,355,3.0,3.0,72,0.00,,,0.00,0,Wunderground v.1.15,2013-03-06 07:20:00,
2013-03-06 01:30:00,23.6,15.6,30.44,NW,323,6.0,6.0,71,0.00,,,0.00,0,Wunderground v.1.15,2013-03-06 07:30:00,
2013-03-06 01:40:00,23.6,15.9,30.45,North,350,3.0,3.0,72,0.00,,,0.00,0,Wunderground v.1.15,2013-03-06 07:40:00,
2013-03-06 01:50:00,23.5,15.8,30.45,NNW,342,4.0,4.0,72,0.00,,,0.00,0,Wunderground v.1.15,2013-03-06 07:50:00,
2013-03-06 02:00:00,23.5,15.8,30.45,North,360,3.0,9.0,72,0.00,,,0.00,0,Wunderground v.1.15,2013-03-06 08:00:00,
2013-03-06 02:09:00,23.5,15.8,30.46,NNW,330,3.0,9.0,72,0.00,,,0.00,0,Wunderground v.1.15,2013-03-06 08:09:00,
2013-03-06 02:20:00,23.3,15.6,30.46,NNW,336,5.0,5.0,72,0.00,,,0.00,0,Wunderground v.1.15,2013-03-06 08:20:00,
2013-03-06 02:30:00,23.3,15.6,30.46,North,355,2.0,2.0,72,0.00,,,0.00,0,Wunderground v.1.15,2013-03-06 08:30:00,
2013-03-06 02:40:00,23.2,15.5,30.45,NW,316,3.0,3.0,72,0.00,,,0.00,0,Wunderground v.1.15,2013-03-06 08:40:00,
2013-03-06 02:50:00,23.2,15.8,30.45,NNW,336,3.0,3.0,73,0.00,,,0.00,0,Wunderground v.1.15,2013-03-06 08:50:00,
2013-03-06 03:00:00,23.2,15.5,30.45,NNW,333,3.0,7.0,72,0.00,,,0.00,0,Wunderground v.1.15,2013-03-06 09:00:00,
2013-03-06 03:10:00,23.0,15.6,30.44,NNW,338,3.0,4.0,73,0.00,,,0.00,0,Wunderground v.1.15,2013-03-06 09:10:00,
2013-03-06 03:20:00,23.0,15.3,30.44,North,355,5.0,8.0,72,0.00,,,0.00,0,Wunderground v.1.15,2013-03-06 09:20:00,
2013-03-06 03:30:00,22.9,15.5,30.45,NW,325,5.0,6.0,73,0.00,,,0.00,0,Wunderground v.1.15,2013-03-06 09:30:00,
2013-03-06 03:40:00,22.9,15.5,30.45,NNW,328,4.0,4.0,73,0.00,,,0.00,0,Wunderground v.1.15,2013-03-06 09:40:00,
2013-03-06 03:50:00,22.9,15.5,30.45,NW,321,3.0,3.0,73,0.00,,,0.00,0,Wunderground v.1.15,2013-03-06 09:50:00,
2013-03-06 04:00:00,23.0,15.9,30.45,NNW,331,2.0,3.0,74,0.00,,,0.00,0,Wunderground v.1.15,2013-03-06 10:00:00,
2013-03-06 04:10:00,23.0,15.9,30.45,North,355,3.0,3.0,74,0.00,,,0.00,0,Wunderground v.1.15,2013-03-06 10:10:00,
2013-03-06 04:20:00,23.0,15.9,30.45,North,360,1.0,1.0,74,0.00,,,0.00,0,Wunderground v.1.15,2013-03-06 10:20:00,
2013-03-06 04:30:00,23.0,15.9,30.45,North,355,2.0,2.0,74,0.00,,,0.00,0,Wunderground v.1.15,2013-03-06 10:30:00,
2013-03-06 04:40:00,23.0,15.9,30.45,North,5,1.0,1.0,74,0.00,,,0.00,0,Wunderground v.1.15,2013-03-06 10:40:00,
2013-03-06 04:50:00,23.2,16.1,30.45,North,5,0.0,0.0,74,0.00,,,0.00,0,Wunderground v.1.15,2013-03-06 10:50:00,
2013-03-06 05:00:00,23.0,15.9,30.46,North,5,1.0,1.0,74,0.00,,,0.00,0,Wunderground v.1.15,2013-03-06 11:00:00,
2013-03-06 05:10:00,22.9,15.8,30.47,North,9,2.0,2.0,74,0.00,,,0.00,0,Wunderground v.1.15,2013-03-06 11:10:00,
2013-03-06 05:20:00,22.7,15.7,30.47,NNW,328,1.0,1.0,74,0.00,,,0.00,0,Wunderground v.1.15,2013-03-06 11:20:00,
2013-03-06 05:30:00,22.5,15.5,30.47,NNW,342,0.0,0.0,74,0.00,,,0.00,0,Wunderground v.1.15,2013-03-06 11:30:00,
2013-03-06 05:40:00,22.5,15.5,30.47,North,360,2.0,3.0,74,0.00,,,0.00,0,Wunderground v.1.15,2013-03-06 11:40:00,
2013-03-06 05:50:00,22.4,15.4,30.47,North,11,5.0,5.0,74,0.00,,,0.00,0,Wunderground v.1.15,2013-03-06 11:50:00,
2013-03-06 06:00:00,22.2,15.2,30.47,North,9,1.0,1.0,74,0.00,,,0.00,0,Wunderground v.1.15,2013-03-06 12:00:00,
2013-03-06 06:10:00,22.2,15.2,30.48,North,360,0.0,0.0,74,0.00,,,0.00,0,Wunderground v.1.15,2013-03-06 12:10:00,
2013-03-06 06:20:00,22.2,15.2,30.48,North,360,0.0,0.0,74,0.00,,,0.00,0,Wunderground v.1.15,2013-03-06 12:20:00,
2013-03-06 06:30:00,22.1,15.1,30.48,North,360,0.0,0.0,74,0.00,,,0.00,0,Wunderground v.1.15,2013-03-06 12:30:00,
2013-03-06 06:40:00,22.1,15.1,30.47,North,360,1.0,4.0,74,0.00,,,0.00,0,Wunderground v.1.15,2013-03-06 12:40:00,
2013-03-06 06:50:00,22.2,15.5,30.47,NNE,25,3.0,3.0,75,0.00,,,0.00,0,Wunderground v.1.15,2013-03-06 12:50:00,
2013-03-06 07:00:00,22.1,15.4,30.47,NNE,15,2.0,2.0,75,0.00,,,0.00,9,Wunderground v.1.15,2013-03-06 13:00:00,
2013-03-06 07:10:00,22.1,15.4,30.47,NNE,14,1.0,1.0,75,0.00,,,0.00,16,Wunderground v.1.15,2013-03-06 13:10:00,
2013-03-06 07:20:00,22.1,15.4,30.47,NNE,14,0.0,0.0,75,0.00,,,0.00,30,Wunderground v.1.15,2013-03-06 13:20:00,
2013-03-06 07:30:00,22.1,15.4,30.47,NNE,14,0.0,0.0,75,0.00,,,0.00,42,Wunderground v.1.15,2013-03-06 13:30:00,
2013-03-06 07:40:00,22.2,15.5,30.47,NNE,14,0.0,0.0,75,0.00,,,0.00,58,Wunderground v.1.15,2013-03-06 13:40:00,
2013-03-06 07:50:00,22.4,15.7,30.47,NNE,14,0.0,0.0,75,0.00,,,0.00,65,Wunderground v.1.15,2013-03-06 13:50:00,
2013-03-06 08:00:00,22.5,15.5,30.47,NNE,14,0.0,0.0,74,0.00,,,0.00,95,Wunderground v.1.15,2013-03-06 14:00:00,
2013-03-06 08:10:00,22.7,15.7,30.48,NNE,14,0.0,0.0,74,0.00,,,0.00,156,Wunderground v.1.15,2013-03-06 14:10:00,
2013-03-06 08:20:00,23.2,15.8,30.48,NNE,13,0.0,0.0,73,0.00,,,0.00,248,Wunderground v.1.15,2013-03-06 14:20:00,
2013-03-06 08:30:00,23.6,15.9,30.48,NNW,338,1.0,1.0,72,0.00,,,0.00,262,Wunderground v.1.15,2013-03-06 14:30:00,
2013-03-06 08:39:00,23.9,16.2,30.48,NNW,336,0.0,0.0,72,0.00,,,0.00,206,Wunderground v.1.15,2013-03-06 14:39:00,
2013-03-06 08:50:00,24.5,16.8,30.48,NNE,13,0.0,0.0,72,0.00,,,0.00,316,Wunderground v.1.15,2013-03-06 14:50:00,
2013-03-06 09:00:00,24.8,16.7,30.48,NNE,13,1.0,3.0,71,0.00,,,0.00,380,Wunderground v.1.15,2013-03-06 15:00:00,
2013-03-06 09:10:00,25.1,16.7,30.48,NE,41,1.0,4.0,70,0.00,,,0.00,369,Wunderground v.1.15,2013-03-06 15:10:00,
2013-03-06 09:20:00,25.6,17.2,30.48,NE,37,1.0,4.0,70,0.00,,,0.00,446,Wunderground v.1.15,2013-03-06 15:20:00,
2013-03-06 09:30:00,25.7,16.6,30.48,NE,36,2.0,2.0,68,0.00,,,0.00,455,Wunderground v.1.15,2013-03-06 15:30:00,
2013-03-06 09:40:00,26.6,17.1,30.48,NNE,30,1.0,1.0,67,0.00,,,0.00,461,Wunderground v.1.15,2013-03-06 15:40:00,
2013-03-06 09:50:00,27.0,17.5,30.48,NE,53,1.0,5.0,67,0.00,,,0.00,522,Wunderground v.1.15,2013-03-06 15:50:00,
2013-03-06 10:00:00,26.7,16.9,30.47,ENE,59,1.0,5.0,66,0.00,,,0.00,239,Wunderground v.1.15,2013-03-06 16:00:00,
2013-03-06 10:10:00,27.3,17.4,30.46,ENE,62,4.0,4.0,66,0.00,,,0.00,552,Wunderground v.1.15,2013-03-06 16:10:00,
2013-03-06 10:20:00,27.9,17.3,30.46,ENE,65,3.0,3.0,64,0.00,,,0.00,564,Wunderground v.1.15,2013-03-06 16:20:00,
2013-03-06 10:30:00,28.4,18.1,30.46,NE,46,4.0,6.0,65,0.00,,,0.00,584,Wunderground v.1.15,2013-03-06 16:30:00,
2013-03-06 10:40:00,28.5,17.9,30.46,NE,44,4.0,4.0,64,0.00,,,0.00,621,Wunderground v.1.15,2013-03-06 16:40:00,
2013-03-06 10:49:00,29.0,18.3,30.46,ENE,59,2.0,2.0,64,0.00,,,0.00,619,Wunderground v.1.15,2013-03-06 16:49:00,
2013-03-06 10:59:00,29.5,18.4,30.46,ENE,63,2.0,3.0,63,0.00,,,0.00,643,Wunderground v.1.15,2013-03-06 16:59:00,
2013-03-06 11:10:00,30.1,18.3,30.46,NE,51,2.0,2.0,61,0.00,,,0.00,654,Wunderground v.1.15,2013-03-06 17:10:00,
2013-03-06 11:20:00,30.4,18.5,30.46,ENE,73,3.0,3.0,61,0.00,,,0.00,666,Wunderground v.1.15,2013-03-06 17:20:00,
2013-03-06 11:30:00,31.0,19.1,30.45,ENE,68,3.0,3.0,61,0.00,,,0.00,679,Wunderground v.1.15,2013-03-06 17:30:00,
2013-03-06 11:40:00,31.5,18.4,30.44,NE,48,2.0,2.0,58,0.00,,,0.00,687,Wunderground v.1.15,2013-03-06 17:40:00,
2013-03-06 11:49:00,31.6,18.5,30.44,NNE,32,1.0,1.0,58,0.00,,,0.00,698,Wunderground v.1.15,2013-03-06 17:49:00,
2013-03-06 12:00:00,32.2,19.5,30.44,ENE,63,1.0,1.0,59,0.00,,,0.00,707,Wunderground v.1.15,2013-03-06 18:00:00,
2013-03-06 12:10:00,33.1,19.5,30.44,ENE,76,1.0,1.0,57,0.00,,,0.00,722,Wunderground v.1.15,2013-03-06 18:10:00,
2013-03-06 12:20:00,33.8,20.2,30.44,SSW,195,0.0,0.0,57,0.00,,,0.00,728,Wunderground v.1.15,2013-03-06 18:20:00,
2013-03-06 12:30:00,34.1,20.0,30.43,South,189,1.0,1.0,56,0.00,,,0.00,758,Wunderground v.1.15,2013-03-06 18:30:00,
2013-03-06 12:40:00,34.4,20.7,30.43,SW,217,1.0,3.0,57,0.00,,,0.00,751,Wunderground v.1.15,2013-03-06 18:40:00,
2013-03-06 12:50:00,34.3,21.4,30.43,SW,236,1.0,1.0,59,0.00,,,0.00,650,Wunderground v.1.15,2013-03-06 18:50:00,
2013-03-06 13:00:00,35.2,20.2,30.42,SE,144,1.0,2.0,54,0.00,,,0.00,724,Wunderground v.1.15,2013-03-06 19:00:00,
2013-03-06 13:10:00,35.2,20.2,30.41,ESE,116,1.0,1.0,54,0.00,,,0.00,708,Wunderground v.1.15,2013-03-06 19:10:00,
2013-03-06 13:20:00,35.0,20.0,30.41,SE,127,1.0,1.0,54,0.00,,,0.00,700,Wunderground v.1.15,2013-03-06 19:20:00,
2013-03-06 13:30:00,35.3,19.9,30.41,South,171,0.0,0.0,53,0.00,,,0.00,689,Wunderground v.1.15,2013-03-06 19:30:00,
2013-03-06 13:40:00,35.3,19.9,30.39,South,171,0.0,0.0,53,0.00,,,0.00,675,Wunderground v.1.15,2013-03-06 19:40:00,
2013-03-06 13:50:00,35.6,20.6,30.39,SE,133,1.0,2.0,54,0.00,,,0.00,663,Wunderground v.1.15,2013-03-06 19:50:00,
2013-03-06 14:00:00,35.8,20.3,30.38,ESE,103,2.0,3.0,53,0.00,,,0.00,654,Wunderground v.1.15,2013-03-06 20:00:00,
2013-03-06 14:10:00,36.2,20.7,30.37,NE,51,1.0,6.0,53,0.00,,,0.00,640,Wunderground v.1.15,2013-03-06 20:10:00,
2013-03-06 14:20:00,36.5,21.8,30.37,SW,221,2.0,4.0,55,0.00,,,0.00,619,Wunderground v.1.15,2013-03-06 20:20:00,
2013-03-06 14:30:00,36.5,21.0,30.36,East,94,3.0,3.0,53,0.00,,,0.00,601,Wunderground v.1.15,2013-03-06 20:30:00,
2013-03-06 14:40:00,37.0,21.0,30.36,ESE,110,1.0,1.0,52,0.00,,,0.00,584,Wunderground v.1.15,2013-03-06 20:40:00,
2013-03-06 14:50:00,36.9,20.4,30.36,ESE,121,2.0,3.0,51,0.00,,,0.00,561,Wunderground v.1.15,2013-03-06 20:50:00,
2013-03-06 15:00:00,36.8,19.4,30.35,East,81,3.0,4.0,49,0.00,,,0.00,536,Wunderground v.1.15,2013-03-06 21:00:00,
2013-03-06 15:09:00,36.6,20.2,30.35,ESE,123,3.0,3.0,51,0.00,,,0.00,512,Wunderground v.1.15,2013-03-06 21:09:00,
2013-03-06 15:20:00,37.3,20.3,30.35,ESE,117,2.0,2.0,50,0.00,,,0.00,492,Wunderground v.1.15,2013-03-06 21:20:00,
2013-03-06 15:30:00,37.0,20.1,30.34,ESE,117,3.0,3.0,50,0.00,,,0.00,468,Wunderground v.1.15,2013-03-06 21:30:00,
2013-03-06 15:40:00,37.5,20.5,30.34,ESE,113,2.0,4.0,50,0.00,,,0.00,439,Wunderground v.1.15,2013-03-06 21:40:00,
2013-03-06 15:50:00,37.6,20.1,30.34,East,99,3.0,5.0,49,0.00,,,0.00,415,Wunderground v.1.15,2013-03-06 21:50:00,
2013-03-06 16:00:00,37.5,20.1,30.34,ESE,121,4.0,4.0,49,0.00,,,0.00,385,Wunderground v.1.15,2013-03-06 22:00:00,
2013-03-06 16:10:00,37.9,20.9,30.33,East,91,4.0,5.0,50,0.00,,,0.00,355,Wunderground v.1.15,2013-03-06 22:10:00,
2013-03-06 16:19:00,37.8,21.3,30.33,ESE,116,3.0,3.0,51,0.00,,,0.00,325,Wunderground v.1.15,2013-03-06 22:19:00,
2013-03-06 16:30:00,37.8,21.3,30.33,East,101,3.0,3.0,51,0.00,,,0.00,299,Wunderground v.1.15,2013-03-06 22:30:00,
2013-03-06 16:40:00,37.6,21.5,30.32,SE,139,3.0,4.0,52,0.00,,,0.00,265,Wunderground v.1.15,2013-03-06 22:40:00,
2013-03-06 16:49:00,37.8,21.7,30.32,ESE,111,4.0,5.0,52,0.00,,,0.00,236,Wunderground v.1.15,2013-03-06 22:49:00,
2013-03-06 16:59:00,37.6,22.0,30.32,ESE,117,3.0,5.0,53,0.00,,,0.00,204,Wunderground v.1.15,2013-03-06 22:59:00,
2013-03-06 17:10:00,37.5,21.9,30.31,ESE,115,4.0,4.0,53,0.00,,,0.00,176,Wunderground v.1.15,2013-03-06 23:10:00,
2013-03-06 17:20:00,37.2,22.1,30.31,ESE,119,3.0,3.0,54,0.00,,,0.00,142,Wunderground v.1.15,2013-03-06 23:20:00,
2013-03-06 17:30:00,36.9,21.8,30.31,ESE,119,4.0,4.0,54,0.00,,,0.00,114,Wunderground v.1.15,2013-03-06 23:30:00,
2013-03-06 17:40:00,36.6,21.9,30.30,ESE,112,4.0,4.0,55,0.00,,,0.00,49,Wunderground v.1.15,2013-03-06 23:40:00,
2013-03-06 17:49:00,36.3,21.7,30.30,ESE,117,2.0,2.0,55,0.00,,,0.00,33,Wunderground v.1.15,2013-03-06 23:49:00,
2013-03-06 18:00:00,35.8,21.6,30.30,ESE,107,2.0,2.0,56,0.00,,,0.00,19,Wunderground v.1.15,2013-03-07 00:00:00,
2013-03-06 18:10:00,35.5,21.3,30.30,ESE,107,0.0,0.0,56,0.00,,,0.00,12,Wunderground v.1.15,2013-03-07 00:10:00,
2013-03-06 18:20:00,35.2,21.1,30.30,ESE,107,0.0,0.0,56,0.00,,,0.00,5,Wunderground v.1.15,2013-03-07 00:20:00,
2013-03-06 18:30:00,34.4,21.5,30.30,ESE,107,0.0,0.0,59,0.00,,,0.00,0,Wunderground v.1.15,2013-03-07 00:30:00,
2013-03-06 18:40:00,33.4,21.4,30.30,ESE,107,0.0,0.0,61,0.00,,,0.00,0,Wunderground v.1.15,2013-03-07 00:40:00,
2013-03-06 18:50:00,33.1,21.5,30.30,ESE,107,0.0,0.0,62,0.00,,,0.00,0,Wunderground v.1.15,2013-03-07 00:50:00,
2013-03-06 19:00:00,33.2,21.6,30.30,ESE,106,0.0,0.0,62,0.00,,,0.00,0,Wunderground v.1.15,2013-03-07 01:00:00,
2013-03-06 19:10:00,32.7,21.9,30.30,ESE,106,0.0,0.0,64,0.00,,,0.00,0,Wunderground v.1.15,2013-03-07 01:10:00,
2013-03-06 19:20:00,32.4,21.9,30.30,ESE,106,0.0,0.0,65,0.00,,,0.00,0,Wunderground v.1.15,2013-03-07 01:20:00,
2013-03-06 19:30:00,32.4,21.9,30.30,ESE,106,0.0,0.0,65,0.00,,,0.00,0,Wunderground v.1.15,2013-03-07 01:30:00,
2013-03-06 19:39:00,32.5,21.7,30.30,ESE,107,0.0,0.0,64,0.00,,,0.00,0,Wunderground v.1.15,2013-03-07 01:39:00,
2013-03-06 19:49:00,32.1,21.7,30.30,ESE,106,0.0,0.0,65,0.00,,,0.00,0,Wunderground v.1.15,2013-03-07 01:49:00,
2013-03-06 19:59:00,32.1,22.0,30.30,ESE,106,0.0,2.0,66,0.00,,,0.00,0,Wunderground v.1.15,2013-03-07 01:59:00,
2013-03-06 20:10:00,31.6,22.2,30.30,ESE,111,3.0,4.0,68,0.00,,,0.00,0,Wunderground v.1.15,2013-03-07 02:10:00,
2013-03-06 20:20:00,31.5,22.5,30.30,ESE,117,3.0,3.0,69,0.00,,,0.00,0,Wunderground v.1.15,2013-03-07 02:20:00,
2013-03-06 20:30:00,31.0,22.4,30.30,ESE,117,0.0,0.0,70,0.00,,,0.00,0,Wunderground v.1.15,2013-03-07 02:30:00,
2013-03-06 20:40:00,30.4,22.1,30.30,ESE,117,0.0,0.0,71,0.00,,,0.00,0,Wunderground v.1.15,2013-03-07 02:40:00,
2013-03-06 20:50:00,29.7,21.8,30.30,ESE,119,1.0,3.0,72,0.00,,,0.00,0,Wunderground v.1.15,2013-03-07 02:50:00,
2013-03-06 21:00:00,29.8,21.9,30.30,ESE,109,3.0,3.0,72,0.00,,,0.00,0,Wunderground v.1.15,2013-03-07 03:00:00,
2013-03-06 21:10:00,29.8,21.5,30.30,ESE,103,4.0,4.0,71,0.00,,,0.00,0,Wunderground v.1.15,2013-03-07 03:10:00,
2013-03-06 21:20:00,29.8,21.5,30.30,ESE,123,2.0,3.0,71,0.00,,,0.00,0,Wunderground v.1.15,2013-03-07 03:20:00,
2013-03-06 21:30:00,29.8,21.5,30.30,ESE,118,2.0,2.0,71,0.00,,,0.00,0,Wunderground v.1.15,2013-03-07 03:30:00,
2013-03-06 21:39:00,29.5,21.6,30.30,ESE,117,2.0,4.0,72,0.00,,,0.00,0,Wunderground v.1.15,2013-03-07 03:39:00,
2013-03-06 21:49:00,29.4,21.8,30.30,ESE,106,3.0,3.0,73,0.00,,,0.00,0,Wunderground v.1.15,2013-03-07 03:49:00,
2013-03-06 22:00:00,29.0,21.7,30.30,ESE,120,1.0,1.0,74,0.00,,,0.00,0,Wunderground v.1.15,2013-03-07 04:00:00,
2013-03-06 22:10:00,28.8,21.6,30.30,ESE,114,3.0,7.0,74,0.00,,,0.00,0,Wunderground v.1.15,2013-03-07 04:10:00,
2013-03-06 22:19:00,28.7,21.8,30.30,ESE,117,5.0,5.0,75,0.00,,,0.00,0,Wunderground v.1.15,2013-03-07 04:19:00,
2013-03-06 22:29:00,28.5,21.6,30.29,ESE,118,5.0,7.0,75,0.00,,,0.00,0,Wunderground v.1.15,2013-03-07 04:29:00,
2013-03-06 22:40:00,28.4,21.5,30.29,ESE,110,5.0,5.0,75,0.00,,,0.00,0,Wunderground v.1.15,2013-03-07 04:40:00,
2013-03-06 22:50:00,28.2,21.6,30.29,ESE,119,3.0,3.0,76,0.00,,,0.00,0,Wunderground v.1.15,2013-03-07 04:50:00,
2013-03-06 22:59:00,27.9,21.3,30.29,ESE,117,1.0,1.0,76,0.00,,,0.00,0,Wunderground v.1.15,2013-03-07 04:59:00,
2013-03-06 23:10:00,27.8,21.2,30.30,ESE,119,1.0,2.0,76,0.00,,,0.00,0,Wunderground v.1.15,2013-03-07 05:10:00,
2013-03-06 23:20:00,27.5,20.9,30.30,ESE,117,1.0,1.0,76,0.00,,,0.00,0,Wunderground v.1.15,2013-03-07 05:20:00,
2013-03-06 23:30:00,27.3,20.7,30.29,ESE,117,1.0,1.0,76,0.00,,,0.00,0,Wunderground v.1.15,2013-03-07 05:30:00,
2013-03-06 23:39:00,27.0,20.7,30.30,ESE,117,0.0,0.0,77,0.00,,,0.00,0,Wunderground v.1.15,2013-03-07 05:39:00,
2013-03-06 23:50:00,26.6,20.4,30.30,ESE,117,0.0,0.0,77,0.00,,,0.00,0,Wunderground v.1.15,2013-03-07 05:50:00,